Williamsport, Maryland
Current Conditions -  °F | °C
As of 2:53 AM on Wednesday 22 Oct 2014 (Local Time) from KHGR Reporting Station
Overcast Overcast  
Wind Chill: 51°   Ceiling: 5500
Heat Index: 51°   Visibility: 10mi
Dew Point: 48°   Wind: 7mph
Humidity: 89%   Direction: 350°N
Pressure: 29.91"   Gusts: NA
Location:  39.6°N, 77.82°W
Report Text: KHGR 220653Z AUTO 35006KT 10SM OVC055 11/09 A2991 RMK AO2 SLP137 T01060089 TSNO
Loading
Personal Weather Stations






























Interactive Weather Map
Tropical Storm Tracking
New forecast layout! Learn more

10-Day Weather Forecast

Advertisements
Track Severe Weather on mobile